Logo AVAMET
Benvolgut visitant, si us plau, ingressa Recuperar contrasenya

Inforatge Riola

Dades diàries. Acumulats / Últims 30 dies disponibles

Data Temperatura (°C) Humitat rel. (%) Pressió rel. (hPa) Vent (km/h) Precipitació
Mínima Mitjana Màxima Amplitud
tèrmica
Mínima Mitjana Màxima Mínima Mitjana Màxima Predom. Mitjana Ràfega
màxima
Total
(mm)
Índex-n
Mínima Mitjana Màxima Mínima Mitjana Màxima n
0 a 1
P0 max
mm 5'
Dades mensuals acumulades fins l'últim dia disponible
05/2019 9,3 13,7 20,7 18,8 18,9 23,8 33,3 24,0 23 70 94 1.002 1.014 1.025   5,4 50,0 5,0
Dades anuals acumulades fins l'últim dia disponible
2019 1,8 9,4 20,7 14,4 13,2 20,0 33,3 31,5 15 67 96 994 1.019 1.036   4,9 63,0 166,6
Últims 30 dies disponibles
24-05-2019 16,3     18,0     18,9 2,6 73 85 92 1.013 1.015 1.016 SSE 4,5 33,9 2,4 0,20
23-05-2019 14,8     20,6     28,2 13,4 41 72 91 1.014 1.016 1.019 SSO 3,6 22,6 0,0
22-05-2019 13,2     19,0     23,1 9,9 59 76 91 1.016 1.018 1.019 SSO 4,8 29,6 0,0
21-05-2019 16,2     18,8     22,3 6,1 63 79 91 1.014 1.016 1.018 S 5,0 32,2 0,6
20-05-2019 11,2     18,1     23,1 11,9 39 66 89 1.011 1.013 1.014 SSO 6,4 35,4 0,0
19-05-2019 12,4     18,2     24,7 12,3 27 62 89 1.009 1.011 1.013 SSO 5,2 31,5 0,0
18-05-2019 12,4     16,6     20,3 7,9 48 64 82 1.008 1.009 1.011 SSO 4,5 29,6 0,0
17-05-2019 15,3     20,3     25,3 10,0 31 50 88 1.002 1.005 1.010 O 10,1 43,5 0,0
16-05-2019 13,2     20,2     22,6 9,4 61 71 86 1.005 1.008 1.014 SSE 9,6 35,4 0,0
15-05-2019 13,2     18,2     22,3 9,1 60 76 90 1.011 1.012 1.015 S 3,9 27,8 0,0
14-05-2019 12,7     19,6     26,3 13,6 37 66 92 1.013 1.018 1.022 SO 5,9 31,5 0,0
13-05-2019 13,9     18,5     23,8 9,9 42 75 94 1.019 1.020 1.021 S 3,3 24,1 0,0
12-05-2019 14,3     19,5     24,2 9,9 46 72 92 1.019 1.023 1.025 S 4,6 35,4 0,0
11-05-2019 16,5     21,2     24,8 8,3 50 70 89 1.014 1.019 1.024 SE 4,4 27,8 0,0
10-05-2019 20,7     26,4     33,3 12,6 23 48 69 1.011 1.013 1.015 O 7,1 32,2 0,0
09-05-2019 19,7     23,8     30,1 10,4 37 54 69 1.011 1.013 1.014 O 7,5 37,0 0,0
08-05-2019 14,3     22,4     29,9 15,6 37 63 93 1.010 1.012 1.015 O 8,1 50,0 0,0
07-05-2019 12,4     18,1     25,9 13,5 51 79 93 1.013 1.017 1.020 SSO 4,1 27,8 0,0
06-05-2019 9,9     15,4     20,0 10,1 63 81 93 1.017 1.019 1.020 SSO 3,9 24,1 0,0
05-05-2019 10,9     15,7     19,8 8,9 38 69 91 1.013 1.015 1.018 S 5,7 38,9 0,0
04-05-2019 9,3     15,4     21,3 12,0 41 71 93 1.010 1.013 1.015 SO 6,5 35,4 0,2
03-05-2019 10,3     14,7     19,1 8,8 56 79 92 1.013 1.014 1.015 SO 3,3 29,6 1,4
02-05-2019 14,3     17,3     20,3 6,0 48 75 94 1.014 1.015 1.017 SSE 3,7 18,5 0,2
01-05-2019 12,3     16,2     21,2 8,9 56 83 94 1.013 1.015 1.017 SSO 3,8 29,6 0,2
30-04-2019 12,9     17,1     21,3 8,4 61 80 93 1.016 1.017 1.019 SSO 4,0 25,9 0,0
29-04-2019 13,6     16,1     19,4 5,8 71 83 92 1.017 1.020 1.022 SSO 4,3 31,5 0,0
28-04-2019 9,8     16,9     21,7 11,9 68 82 90 1.020 1.020 1.021 SE 4,0 24,1 0,0
27-04-2019 9,8     12,8     19,6 9,8 43 75 86 1.025 1.026 1.027 ONO 1,1 11,3 0,0
26-04-2019 11,7     17,4     23,5 11,8 32 54 77 1.019 1.022 1.025 OSO 7,3 33,9 0,0
25-04-2019 15,7     18,1     22,3 6,6 36 56 69 1.009 1.013 1.019 O 7,3 31,5 0,0
Últims 13 mesos disponibles
04/2019 8,8 11,4 15,7 15,6 15,0 20,4 30,4 21,6 45 71 95 1.000 1.014 1.026 O 6,0 50,0 135,2
03/2019 5,6 8,4 14,8 14,2 13,2 20,4 28,8 23,2 42 65 92 1.012 1.023 1.030 SO 4,0 40,7 24,6
02/2019 4,8 7,0 11,6 12,4 13,3 18,5 26,1 21,3 38 67 87 995 1.025 1.034 SSO 4,7 63,0 0,6
01/2019 1,8 6,8 13,3 11,4 13,2 17,3 21,3 19,5 42 62 83 1.003 1.020 1.031 OSO 4,7 53,7 1,2
12/2018 4,1 8,4 13,0 13,3 14,1 19,1 24,1 20,0 48 73 89 1.009 1.026 1.031 O 4,0 55,6 20,0
11/2018 6,8 11,8 15,6 15,3 14,8 19,1 23,8 17,0 49 72 94 1.001 1.016 1.025 2,6 55,6 268,4
10/2018 7,5 14,7 19,4 18,6 14,9 23,3 29,7 22,2 49 77 93 1.001 1.015 1.026 SO 3,3 45,0 117,4
09/2018 16,1 20,2 22,4 24,1 23,6 28,3 31,8 15,7 66 81 91 1.013 1.019 1.030 3,2 61,1 105,8
08/2018 19,8 22,9 26,9 27,0 27,4 31,5 36,3 16,5 62 74 83 1.013 1.017 1.022 4,9 46,7 28,6
07/2018 21,4 22,7 25,1 27,0 28,6 31,7 37,1 15,7 41 74 82 1.010 1.014 1.017 5,0 42,6 3,6
06/2018 14,9 19,0 22,8 23,8 23,9 28,6 31,9 17,0 39 67 81 1.010 1.016 1.021 4,9 35,4 52,8
Tots els anys disponibles
2018 1,4 14,2 26,9 18,5 8,5 23,3 37,1 35,7 39 71 94 994 1.017 1.036 SSO 4,6 61,1 718,2
Temperatura (°C)
Humitat relativa (%)
Velocitat del vent i ràfega màxima (km/h)
Direcció del vent (°)
Pressió (hPa)
Precipitació (mm)
Nota sobre les dades: s'avisa a l'usuari de la provisionalitat i no oficialitat d'aquestes dades
Logo AVAMET blanc
Web allotjada a Sollutia
Llicència de Creative CommonsLa web d'AVAMET i els seus continguts estan subjectes a una llicència de
Reconeixement - No Comercial - Compartir igual
Properes estacions: Altea - Club Nàutic d'Altea (Soci), Ontinyent - El Pilar (Soci), Ares del Maestrat (Ajuntament Soci), Catadau - L'Altet (Inforatge)     - - - - -      Últimes estacions: Asp - Poliesportiu (Soci), Jacarilla - centro (MeteOrihuela), Elx - Maitino/Vallverda/Velarde/Matola/Ferriol (Soci TiempoElche.com), Orihuela - Playa Flamenca (MeteOrihuela), - - -